Time;durP1;ratioP1;P1;durP2;ratioP2;P2;SDS_P1;SDS_P2;PMS_P1;PMS_P2;Temp;Humidity;BMP_temperature;BMP_pressure;BME280_temperature;BME280_humidity;BME280_pressure;Samples;Min_cycle;Max_cycle;Signal;HPM_P1;HPM_P2
2022/08/07 00:01:07;;;;;;;4.10;3.30;;;;;;;13.88;81.26;102571.44;5072649;28;20037;-74
2022/08/07 00:03:33;;;;;;;6.00;3.38;;;;;;;13.87;82.49;102581.34;5071937;28;20024;-73
2022/08/07 00:05:58;;;;;;;6.30;3.78;;;;;;;13.78;81.73;102577.00;5072540;28;20089;-73
2022/08/07 00:08:24;;;;;;;4.88;2.97;;;;;;;13.70;81.40;102575.25;5072403;28;20021;-74
2022/08/07 00:10:50;;;;;;;5.47;3.50;;;;;;;13.64;81.55;102578.59;5072297;28;20472;-73
2022/08/07 00:13:16;;;;;;;6.03;3.60;;;;;;;13.64;81.89;102580.44;5072320;28;20060;-73
2022/08/07 00:15:42;;;;;;;3.97;2.88;;;;;;;13.58;81.65;102565.91;5072333;28;20177;-73
2022/08/07 00:18:08;;;;;;;11.25;3.95;;;;;;;13.61;81.96;102573.59;5072189;28;20495;-73
2022/08/07 00:20:37;;;;;;;4.38;3.38;;;;;;;13.57;82.20;102574.94;5072254;28;20107;-73
2022/08/07 00:23:05;;;;;;;3.67;3.28;;;;;;;13.57;82.36;102570.44;5072232;28;20024;-73
2022/08/07 00:25:31;;;;;;;8.05;3.60;;;;;;;13.58;82.59;102568.59;5072143;28;20424;-74
2022/08/07 00:27:56;;;;;;;6.47;4.07;;;;;;;13.52;82.25;102564.75;5072102;28;20035;-73
2022/08/07 00:30:23;;;;;;;5.88;3.83;;;;;;;13.50;82.53;102572.13;5070734;28;20441;-74
2022/08/07 00:32:49;;;;;;;5.90;4.00;;;;;;;13.48;82.14;102552.69;5070990;28;20072;-73
2022/08/07 00:35:17;;;;;;;5.70;3.70;;;;;;;13.52;82.41;102564.75;5070497;28;20040;-73
2022/08/07 00:37:42;;;;;;;8.75;4.28;;;;;;;13.54;82.24;102557.34;5070727;28;20056;-73
2022/08/07 00:40:08;;;;;;;5.93;3.67;;;;;;;13.54;82.28;102543.13;5070896;28;20136;-73
2022/08/07 00:42:33;;;;;;;6.03;3.70;;;;;;;13.61;82.78;102544.09;5070739;28;20082;-73
2022/08/07 00:44:59;;;;;;;10.82;3.67;;;;;;;13.63;81.62;102539.41;5070739;28;20032;-74
2022/08/07 00:47:24;;;;;;;6.78;3.78;;;;;;;13.70;81.61;102547.56;5068892;28;20031;-73
2022/08/07 00:49:50;;;;;;;5.22;3.88;;;;;;;13.68;81.56;102546.94;5070461;28;20330;-73
2022/08/07 00:52:15;;;;;;;8.68;3.75;;;;;;;13.59;82.33;102541.56;5070059;28;20676;-73
2022/08/07 00:54:41;;;;;;;7.68;3.72;;;;;;;13.59;82.11;102546.94;5070115;28;20487;-73
2022/08/07 00:57:07;;;;;;;5.05;3.80;;;;;;;13.58;82.13;102549.81;5070344;28;20399;-73
2022/08/07 00:59:33;;;;;;;7.32;3.22;;;;;;;13.51;82.58;102538.09;5070184;28;20077;-73
2022/08/07 01:02:01;;;;;;;7.60;4.13;;;;;;;13.47;83.39;102536.81;5070358;28;20473;-73
2022/08/07 01:04:27;;;;;;;6.18;3.25;;;;;;;13.43;83.61;102533.63;5070306;28;20109;-73
2022/08/07 01:06:52;;;;;;;6.70;3.50;;;;;;;13.43;83.45;102533.63;5070450;28;20066;-73
2022/08/07 01:09:17;;;;;;;7.47;4.03;;;;;;;13.45;83.76;102538.81;5070314;28;20548;-73
2022/08/07 01:11:43;;;;;;;8.90;4.03;;;;;;;13.45;83.67;102536.97;5070301;28;20020;-73
2022/08/07 01:14:09;;;;;;;9.07;4.35;;;;;;;13.44;84.04;102540.66;5070087;28;20485;-74
2022/08/07 01:16:35;;;;;;;8.00;4.57;;;;;;;13.38;83.60;102534.13;5070255;28;20020;-74
2022/08/07 01:19:02;;;;;;;9.00;4.25;;;;;;;13.36;83.82;102530.81;5070110;28;20064;-67
2022/08/07 01:21:28;;;;;;;6.65;3.90;;;;;;;13.26;83.79;102529.31;5070159;28;20559;-67
2022/08/07 01:23:55;;;;;;;6.78;3.97;;;;;;;13.22;84.35;102526.13;5069986;28;20115;-67
2022/08/07 01:26:21;;;;;;;9.90;4.03;;;;;;;13.19;84.49;102522.97;5069755;28;20038;-66
2022/08/07 01:28:49;;;;;;;8.15;4.97;;;;;;;13.18;84.19;102527.50;5069952;28;20470;-67
2022/08/07 01:31:16;;;;;;;7.63;4.07;;;;;;;13.19;84.63;102518.44;5069973;28;20038;-67
2022/08/07 01:33:42;;;;;;;9.00;4.70;;;;;;;13.25;84.98;102524.94;5031205;28;1115374;-67
2022/08/07 01:36:09;;;;;;;8.82;4.38;;;;;;;13.24;84.90;102516.09;5070677;28;20291;-67
2022/08/07 01:38:35;;;;;;;7.85;4.10;;;;;;;13.18;85.21;102521.28;5070352;28;20411;-67
2022/08/07 01:41:02;;;;;;;7.78;4.45;;;;;;;13.23;84.51;102521.59;5070774;28;20039;-66
2022/08/07 01:43:29;;;;;;;8.52;4.70;;;;;;;13.22;84.23;102515.41;5070742;28;20036;-67
2022/08/07 01:45:55;;;;;;;9.68;4.88;;;;;;;13.17;84.28;102515.09;5070686;28;20028;-67
2022/08/07 01:48:21;;;;;;;6.72;4.03;;;;;;;13.08;84.54;102519.66;5070652;28;20105;-67
2022/08/07 01:51:02;;;;;;;8.70;4.90;;;;;;;12.96;84.73;102512.97;5070659;28;20048;-73
2022/08/07 01:53:31;;;;;;;7.40;4.83;;;;;;;12.92;85.15;102520.53;5070496;28;20032;-73
2022/08/07 01:56:04;;;;;;;7.55;4.10;;;;;;;12.92;85.64;102517.84;5069916;28;20031;-73
2022/08/07 01:58:32;;;;;;;8.13;4.45;;;;;;;12.89;85.83;102515.53;5069325;28;20024;-72
2022/08/07 02:01:02;;;;;;;8.48;4.93;;;;;;;12.90;85.44;102511.00;5070471;28;20158;-73
2022/08/07 02:03:31;;;;;;;11.73;5.05;;;;;;;12.93;86.00;102507.97;5070080;28;20025;-73
2022/08/07 02:06:03;;;;;;;11.13;4.80;;;;;;;12.95;86.02;102508.66;5070302;28;20214;-73
2022/08/07 02:08:34;;;;;;;9.98;5.55;;;;;;;12.91;86.47;102508.13;5070282;28;20093;-73
2022/08/07 02:11:01;;;;;;;9.25;4.53;;;;;;;12.93;85.98;102508.81;5070088;28;20108;-73
2022/08/07 02:13:30;;;;;;;8.85;4.30;;;;;;;12.88;86.00;102513.84;5070173;28;20020;-73
2022/08/07 02:15:59;;;;;;;9.65;4.88;;;;;;;12.81;86.55;102512.00;5069998;28;20460;-73
2022/08/07 02:18:28;;;;;;;8.73;5.53;;;;;;;12.76;86.65;102507.19;5069937;28;20033;-72
2022/08/07 02:20:56;;;;;;;9.73;5.10;;;;;;;12.70;86.87;102499.81;5070046;28;20025;-72
2022/08/07 02:23:24;;;;;;;8.13;4.88;;;;;;;12.57;87.23;102486.94;5069812;28;20115;-73
2022/08/07 02:25:52;;;;;;;7.95;4.72;;;;;;;12.61;87.45;102501.69;5069817;28;20032;-72
2022/08/07 02:28:19;;;;;;;9.38;4.38;;;;;;;12.52;87.34;102491.97;5069696;28;20024;-73
2022/08/07 02:30:47;;;;;;;11.07;4.55;;;;;;;12.47;87.04;102497.84;5069783;28;20044;-73
2022/08/07 02:33:14;;;;;;;5.90;4.53;;;;;;;12.41;87.58;102498.50;5069520;28;20126;-73
2022/08/07 02:35:41;;;;;;;8.73;4.88;;;;;;;12.34;88.00;102491.31;5069296;28;20028;-73
2022/08/07 02:38:07;;;;;;;8.48;4.45;;;;;;;12.35;87.58;102493.00;5069612;28;20081;-73
2022/08/07 02:40:33;;;;;;;10.35;5.25;;;;;;;12.28;87.53;102490.16;5069248;28;20043;-73
2022/08/07 02:43:01;;;;;;;9.85;5.25;;;;;;;12.26;88.03;102498.38;5069626;28;20036;-73
2022/08/07 02:45:30;;;;;;;9.88;5.68;;;;;;;12.19;87.59;102497.34;5069660;28;20107;-73
2022/08/07 02:47:56;;;;;;;10.65;4.88;;;;;;;12.19;87.80;102500.03;5069526;28;20031;-73
2022/08/07 02:50:21;;;;;;;8.07;4.40;;;;;;;12.19;88.23;102489.34;5069422;28;20028;-72
2022/08/07 02:52:53;;;;;;;9.38;4.95;;;;;;;12.18;88.20;102494.84;5069439;28;20055;-73
2022/08/07 02:55:20;;;;;;;;;;;;;;;12.20;85.97;102493.66;5069924;28;20384;-72
2022/08/07 02:57:48;;;;;;;8.50;4.88;;;;;;;12.12;87.53;102493.66;5068962;28;19920;-73
2022/08/07 03:00:15;;;;;;;10.50;5.30;;;;;;;12.09;88.09;102490.50;5069147;28;20475;-73
2022/08/07 03:02:44;;;;;;;9.13;5.40;;;;;;;12.07;88.55;102491.47;5069351;28;20522;-73
2022/08/07 03:05:10;;;;;;;9.43;5.20;;;;;;;12.02;88.62;102490.31;5069198;28;20039;-73
2022/08/07 03:07:36;;;;;;;9.30;5.22;;;;;;;11.95;89.03;102481.31;5069393;28;20024;-73
2022/08/07 03:10:03;;;;;;;6.60;4.50;;;;;;;11.94;89.03;102482.28;5069075;28;20032;-73
2022/08/07 03:12:29;;;;;;;9.48;4.80;;;;;;;11.94;89.06;102495.66;5069265;28;20025;-73
2022/08/07 03:14:55;;;;;;;12.02;5.63;;;;;;;11.93;89.12;102486.81;5069289;28;20036;-73
2022/08/07 03:17:22;;;;;;;8.52;4.70;;;;;;;11.89;88.85;102480.09;5069186;28;20043;-72
2022/08/07 03:19:49;;;;;;;9.48;4.35;;;;;;;11.90;89.08;102488.97;5067973;28;20416;-73
2022/08/07 03:22:16;;;;;;;11.40;5.72;;;;;;;11.92;89.85;102485.16;5069022;28;20384;-73
2022/08/07 03:24:41;;;;;;;10.02;5.55;;;;;;;11.95;90.28;102489.31;5069167;28;20032;-73
2022/08/07 03:27:07;;;;;;;12.75;5.75;;;;;;;11.96;89.78;102486.47;5069014;28;20043;-73
2022/08/07 03:29:38;;;;;;;7.50;4.95;;;;;;;11.96;89.97;102478.44;5068930;28;20082;-73
2022/08/07 03:32:09;;;;;;;8.30;5.28;;;;;;;11.98;89.43;102492.50;5068931;28;20081;-73
2022/08/07 03:34:36;;;;;;;12.93;5.60;;;;;;;11.99;89.66;102490.66;5068861;28;20444;-73
2022/08/07 03:37:03;;;;;;;11.93;5.60;;;;;;;11.91;89.40;102477.28;5068409;28;20028;-73
2022/08/07 03:39:32;;;;;;;11.73;5.15;;;;;;;11.84;89.96;102479.72;5068751;28;20032;-73
2022/08/07 03:41:57;;;;;;;8.52;5.20;;;;;;;11.77;90.24;102471.53;5068952;28;20020;-73
2022/08/07 03:44:23;;;;;;;8.90;5.63;;;;;;;11.76;88.72;102479.72;5068646;28;20122;-73
2022/08/07 03:46:49;;;;;;;10.52;5.30;;;;;;;11.72;89.63;102484.56;5068803;28;20032;-73
2022/08/07 03:49:14;;;;;;;14.70;6.95;;;;;;;11.68;89.27;102483.22;5068772;28;20387;-73
2022/08/07 03:51:41;;;;;;;13.40;6.38;;;;;;;11.65;89.70;102491.56;5068950;28;20123;-73
2022/08/07 03:54:07;;;;;;;13.73;6.38;;;;;;;11.56;89.76;102482.69;5068852;28;20032;-73
2022/08/07 03:56:35;;;;;;;11.27;5.38;;;;;;;11.58;90.25;102494.06;5068716;28;20176;-73
2022/08/07 03:59:02;;;;;;;12.90;6.38;;;;;;;11.57;90.17;102491.53;5067626;28;20029;-73
2022/08/07 04:01:29;;;;;;;8.48;4.28;;;;;;;11.54;90.48;102489.19;5068595;28;20048;-73
2022/08/07 04:03:55;;;;;;;9.98;5.47;;;;;;;11.50;90.64;102487.84;5068803;28;20028;-73
2022/08/07 04:06:20;;;;;;;9.40;5.70;;;;;;;11.51;90.74;102502.88;5068732;28;20052;-73
2022/08/07 04:08:46;;;;;;;11.02;5.55;;;;;;;11.44;91.21;102497.34;5068601;28;20031;-73
2022/08/07 04:11:12;;;;;;;12.20;6.30;;;;;;;11.41;91.13;102506.50;5068175;28;20127;-73
2022/08/07 04:13:38;;;;;;;11.98;6.10;;;;;;;11.37;90.97;102501.66;5068432;28;20143;-73
2022/08/07 04:16:04;;;;;;;10.80;4.95;;;;;;;11.35;91.02;102512.50;5068441;28;20391;-73
2022/08/07 04:18:29;;;;;;;11.57;5.20;;;;;;;11.35;90.87;102507.16;5067183;28;20040;-74
2022/08/07 04:20:55;;;;;;;8.00;4.93;;;;;;;11.37;90.66;102510.53;5069031;28;20024;-73
2022/08/07 04:23:21;;;;;;;11.27;5.10;;;;;;;11.34;91.82;102504.66;5072023;28;20082;-73
2022/08/07 04:25:48;;;;;;;11.25;5.90;;;;;;;11.26;92.31;102502.78;5072186;28;20028;-73
2022/08/07 04:28:13;;;;;;;14.50;6.53;;;;;;;11.30;92.41;102517.50;5071866;28;20037;-73
2022/08/07 04:30:40;;;;;;;10.68;5.88;;;;;;;11.33;92.15;102508.31;5072092;28;20049;-73
2022/08/07 04:33:08;;;;;;;15.80;7.47;;;;;;;11.31;92.16;102507.66;5071826;28;20052;-73
2022/08/07 04:35:37;;;;;;;12.38;5.70;;;;;;;11.36;92.57;102513.34;5072056;28;20028;-73
2022/08/07 04:38:07;;;;;;;10.10;5.35;;;;;;;11.37;92.06;102507.00;5071296;28;20033;-73
2022/08/07 04:40:33;;;;;;;10.23;5.13;;;;;;;11.34;92.29;102504.66;5071780;28;20036;-73
2022/08/07 04:42:59;;;;;;;15.13;7.68;;;;;;;11.41;92.75;102511.84;5071796;28;20028;-73
2022/08/07 04:45:31;;;;;;;10.60;6.07;;;;;;;11.47;92.71;102506.88;5071756;28;20032;-73
2022/08/07 04:48:14;;;;;;;14.32;6.88;;;;;;;11.70;92.89;102513.28;5071650;28;20476;-73
2022/08/07 04:50:55;;;;;;;12.48;6.47;;;;;;;12.26;90.26;102511.75;5071456;28;20029;-73
2022/08/07 04:53:30;;;;;;;13.10;6.72;;;;;;;12.37;88.59;102515.91;5071522;28;20020;-73
2022/08/07 04:56:03;;;;;;;11.35;5.40;;;;;;;12.35;89.07;102509.06;5071479;28;20056;-73
2022/08/07 04:58:54;;;;;;;13.15;6.72;;;;;;;12.50;88.81;102520.78;5071848;28;20036;-73
2022/08/07 05:01:28;;;;;;;12.40;7.47;;;;;;;12.73;88.22;102518.22;5070871;28;20029;-73
2022/08/07 05:04:09;;;;;;;10.55;6.00;;;;;;;12.90;87.27;102527.06;5071452;28;20107;-73
2022/08/07 05:06:41;;;;;;;13.43;7.00;;;;;;;12.93;86.81;102532.06;5071514;28;20016;-72
2022/08/07 05:09:09;;;;;;;12.40;6.65;;;;;;;12.86;86.31;102525.72;5071159;28;20029;-73
2022/08/07 05:11:58;;;;;;;16.08;7.30;;;;;;;12.75;86.41;102526.09;5071363;28;20028;-73
2022/08/07 05:14:39;;;;;;;13.02;6.57;;;;;;;12.76;87.36;102527.75;5071195;28;20091;-72
2022/08/07 05:17:08;;;;;;;11.15;6.15;;;;;;;12.86;87.67;102529.25;5071170;28;20020;-72
2022/08/07 05:19:39;;;;;;;11.52;6.25;;;;;;;12.91;86.95;102515.34;5070676;28;20064;-73
2022/08/07 05:22:07;;;;;;;14.48;6.03;;;;;;;13.06;86.83;102531.53;5070822;28;20032;-73
2022/08/07 05:24:34;;;;;;;17.88;6.93;;;;;;;13.10;86.45;102527.53;5070714;28;20028;-73
2022/08/07 05:27:00;;;;;;;12.38;6.88;;;;;;;13.16;86.27;102532.19;5070785;28;20597;-72
2022/08/07 05:29:27;;;;;;;11.75;6.57;;;;;;;13.23;86.12;102530.50;5070969;28;20067;-73
2022/08/07 05:31:55;;;;;;;13.20;6.15;;;;;;;13.29;86.19;102532.50;5070680;28;20032;-73
2022/08/07 05:34:22;;;;;;;11.75;6.45;;;;;;;13.34;85.89;102538.19;5069836;28;20431;-72
2022/08/07 05:36:50;;;;;;;13.07;6.13;;;;;;;13.38;85.76;102536.81;5070925;28;20545;-73
2022/08/07 05:39:18;;;;;;;13.90;7.10;;;;;;;13.46;85.72;102535.94;5070039;28;20089;-72
2022/08/07 05:41:46;;;;;;;12.43;6.30;;;;;;;13.53;85.96;102536.09;5070829;28;20483;-72
2022/08/07 05:44:12;;;;;;;14.48;6.68;;;;;;;13.56;85.67;102535.75;5069206;28;20037;-72
2022/08/07 05:46:39;;;;;;;12.27;5.85;;;;;;;13.58;85.84;102537.25;5070669;28;20052;-72
2022/08/07 05:49:07;;;;;;;11.77;6.35;;;;;;;13.63;85.81;102535.91;5070536;28;20056;-72
2022/08/07 05:51:32;;;;;;;12.48;6.75;;;;;;;13.66;85.88;102532.84;5070500;28;20021;-72
2022/08/07 05:53:57;;;;;;;12.35;7.25;;;;;;;13.70;86.38;102536.84;5070246;28;20024;-72
2022/08/07 05:56:24;;;;;;;12.98;6.47;;;;;;;13.69;86.22;102538.69;5068691;28;20532;-72
2022/08/07 05:58:50;;;;;;;14.77;7.20;;;;;;;13.74;86.48;102536.31;5068615;28;20040;-73
2022/08/07 06:01:16;;;;;;;13.57;6.78;;;;;;;13.78;86.97;102534.09;5070226;28;20047;-72
2022/08/07 06:03:52;;;;;;;14.32;7.53;;;;;;;13.84;85.95;102538.78;5069823;28;20028;-72
2022/08/07 06:06:19;;;;;;;16.65;6.85;;;;;;;13.88;86.67;102542.75;5070177;28;20033;-73
2022/08/07 06:08:44;;;;;;;16.45;8.63;;;;;;;13.91;86.62;102541.56;5070276;28;20120;-72
2022/08/07 06:11:12;;;;;;;14.98;7.47;;;;;;;14.00;86.42;102545.91;5070004;28;20111;-73
2022/08/07 06:13:37;;;;;;;13.38;7.57;;;;;;;14.05;86.52;102554.25;5068650;28;20049;-73
2022/08/07 06:16:05;;;;;;;13.65;7.05;;;;;;;13.99;86.34;102537.03;5069879;28;20048;-73
2022/08/07 06:18:32;;;;;;;15.35;7.95;;;;;;;14.08;86.73;102550.38;5069625;28;20052;-73
2022/08/07 06:21:02;;;;;;;12.98;7.47;;;;;;;14.12;85.31;102546.31;5069814;28;20111;-73
2022/08/07 06:23:28;;;;;;;13.38;7.03;;;;;;;14.16;85.03;102544.94;5069851;28;20468;-73
2022/08/07 06:25:55;;;;;;;16.27;6.78;;;;;;;14.20;84.05;102554.28;5069987;28;20055;-74
2022/08/07 06:28:20;;;;;;;9.55;6.30;;;;;;;14.27;85.66;102555.25;5069279;28;20111;-71
2022/08/07 06:30:45;;;;;;;15.98;6.60;;;;;;;14.27;83.48;102549.88;5069343;28;20504;-72
2022/08/07 06:33:11;;;;;;;13.43;6.55;;;;;;;14.36;82.93;102559.56;5069354;28;20059;-72
2022/08/07 06:35:37;;;;;;;11.98;6.00;;;;;;;14.41;83.80;102551.81;5069467;28;20438;-72
2022/08/07 06:38:06;;;;;;;14.80;6.85;;;;;;;14.51;83.96;102548.84;5069274;28;20039;-73
2022/08/07 06:40:41;;;;;;;13.50;6.90;;;;;;;14.54;81.92;102535.13;5068986;28;20040;-72
2022/08/07 06:43:09;;;;;;;12.18;6.05;;;;;;;14.58;82.31;102539.09;5069585;28;20468;-73
2022/08/07 06:45:35;;;;;;;12.30;5.97;;;;;;;14.64;82.59;102540.22;5069355;28;20383;-74
2022/08/07 06:48:00;;;;;;;12.90;6.43;;;;;;;14.67;80.26;102546.06;5069447;28;20024;-73
2022/08/07 06:50:27;;;;;;;15.52;8.02;;;;;;;14.73;81.25;102536.44;5069418;28;20032;-72
2022/08/07 06:52:55;;;;;;;10.40;5.85;;;;;;;14.83;81.98;102537.03;5069449;28;20024;-72
2022/08/07 06:55:23;;;;;;;14.88;8.43;;;;;;;14.93;82.30;102538.59;5069653;28;20024;-74
2022/08/07 06:57:50;;;;;;;12.23;6.05;;;;;;;15.00;81.84;102531.47;5069237;28;20052;-72
2022/08/07 07:00:17;;;;;;;11.70;6.20;;;;;;;15.08;80.99;102528.69;5068873;28;20824;-73
2022/08/07 07:02:43;;;;;;;13.48;5.85;;;;;;;15.09;80.48;102524.97;5069211;28;20075;-72
2022/08/07 07:05:09;;;;;;;11.82;6.45;;;;;;;15.15;78.66;102526.94;5068845;28;20133;-72
2022/08/07 07:07:34;;;;;;;13.70;6.85;;;;;;;15.23;78.99;102526.00;5068783;28;20043;-72
2022/08/07 07:10:00;;;;;;;12.15;6.22;;;;;;;15.23;77.80;102523.31;5067894;28;20032;-72
2022/08/07 07:12:37;;;;;;;11.98;5.95;;;;;;;15.37;77.34;102535.91;5069046;28;20119;-72
2022/08/07 07:15:35;;;;;;;12.07;6.25;;;;;;;15.45;77.70;102543.03;5068926;28;20536;-74
2022/08/07 07:18:27;;;;;;;13.30;6.07;;;;;;;15.55;76.70;102538.19;5066009;28;20480;-72
2022/08/07 07:20:56;;;;;;;11.75;6.05;;;;;;;15.62;77.05;102538.28;5067875;28;20032;-72
2022/08/07 07:23:23;;;;;;;12.07;6.13;;;;;;;15.70;77.31;102539.03;5067241;28;20036;-72
2022/08/07 07:25:53;;;;;;;15.07;6.85;;;;;;;15.70;75.07;102530.97;5068792;28;20020;-72
2022/08/07 07:28:24;;;;;;;11.82;5.90;;;;;;;15.83;75.16;102546.44;5069204;28;20044;-72
2022/08/07 07:30:58;;;;;;;12.50;6.85;;;;;;;15.88;75.52;102532.41;5069035;28;20029;-72
2022/08/07 07:33:27;;;;;;;13.40;6.47;;;;;;;15.98;76.00;102532.91;5068993;28;20048;-72
2022/08/07 07:35:54;;;;;;;15.40;6.38;;;;;;;16.06;73.88;102532.81;5069014;28;20071;-76
2022/08/07 07:38:24;;;;;;;15.02;7.57;;;;;;;16.16;73.57;102524.38;5068945;28;20101;-72
2022/08/07 07:40:50;;;;;;;12.05;5.57;;;;;;;16.22;73.18;102518.25;5069108;28;20025;-72
2022/08/07 07:43:17;;;;;;;15.88;6.75;;;;;;;16.29;72.41;102521.00;5066981;28;20032;-72
2022/08/07 07:45:45;;;;;;;9.82;5.80;;;;;;;16.34;71.92;102521.25;5068908;28;20085;-72
2022/08/07 07:48:13;;;;;;;14.88;5.90;;;;;;;16.40;70.91;102524.00;5068579;28;20145;-72
2022/08/07 07:50:39;;;;;;;15.23;6.32;;;;;;;16.43;71.66;102507.47;5067561;28;20055;-72
2022/08/07 07:53:09;;;;;;;12.18;5.55;;;;;;;16.56;71.16;102511.28;5068860;28;20032;-72
2022/08/07 07:55:36;;;;;;;9.35;5.10;;;;;;;16.64;70.30;102511.97;5068683;28;20036;-72
2022/08/07 07:58:03;;;;;;;9.77;4.82;;;;;;;16.72;68.82;102511.00;5072587;28;20040;-72
2022/08/07 08:00:30;;;;;;;8.95;5.88;;;;;;;16.78;69.26;102507.53;5072600;28;20032;-72
2022/08/07 08:03:00;;;;;;;11.23;5.60;;;;;;;16.88;68.26;102514.44;5072693;28;20036;-73
2022/08/07 08:05:26;;;;;;;9.15;4.80;;;;;;;16.97;68.40;102510.53;5072414;28;20476;-72
2022/08/07 08:07:52;;;;;;;8.65;4.88;;;;;;;17.06;69.66;102507.50;5072135;28;20036;-71
2022/08/07 08:10:19;;;;;;;10.25;5.20;;;;;;;17.33;69.17;102506.78;5072463;28;20036;-72
2022/08/07 08:12:45;;;;;;;12.15;5.13;;;;;;;18.08;66.40;102510.34;5072558;28;20487;-72
2022/08/07 08:15:11;;;;;;;7.07;4.05;;;;;;;19.75;60.68;102505.44;5072114;28;20039;-72
2022/08/07 08:17:36;;;;;;;9.52;4.95;;;;;;;22.27;55.20;102501.88;5071852;28;20024;-72
2022/08/07 08:20:05;;;;;;;5.60;3.88;;;;;;;24.49;48.88;102502.19;5072115;28;20033;-72
2022/08/07 08:28:08;;;;;;;8.55;4.63;;;;;;;27.75;37.13;102507.94;5072381;28;20549;-72
2022/08/07 08:30:34;;;;;;;5.75;3.85;;;;;;;28.62;35.73;102504.34;5072083;28;20411;-73
2022/08/07 08:33:04;;;;;;;7.55;4.18;;;;;;;29.23;36.11;102506.88;5071832;28;20377;-73
2022/08/07 08:35:32;;;;;;;10.48;4.28;;;;;;;29.76;32.82;102521.97;5072091;28;20029;-73
2022/08/07 08:38:01;;;;;;;5.43;3.38;;;;;;;29.79;34.24;102510.41;5071941;28;20042;-73
2022/08/07 08:40:32;;;;;;;9.63;3.92;;;;;;;30.17;33.78;102514.22;5071827;28;20054;-72
2022/08/07 08:43:08;;;;;;;5.82;3.22;;;;;;;30.62;34.46;102506.63;5071495;28;20044;-72
2022/08/07 08:45:41;;;;;;;5.47;3.30;;;;;;;31.26;30.92;102511.91;5071813;28;20034;-74
2022/08/07 08:48:26;;;;;;;6.90;3.80;;;;;;;31.62;32.69;102504.81;5071400;28;20066;-73
2022/08/07 08:50:59;;;;;;;5.25;2.47;;;;;;;31.32;30.29;102510.75;5071568;28;20082;-73
2022/08/07 08:53:48;;;;;;;4.72;3.08;;;;;;;31.29;32.16;102509.41;5071664;28;20107;-72
2022/08/07 08:56:20;;;;;;;9.68;3.05;;;;;;;31.29;30.26;102498.38;5071778;28;20379;-72
2022/08/07 08:59:24;;;;;;;7.78;3.67;;;;;;;30.54;34.92;102496.25;5071463;28;20161;-73
2022/08/07 09:02:23;;;;;;;4.43;3.10;;;;;;;27.66;35.52;102506.00;5071592;28;20508;-73
2022/08/07 09:05:12;;;;;;;3.42;2.70;;;;;;;25.39;40.89;102496.56;5071550;28;20604;-73
2022/08/07 09:07:37;;;;;;;5.05;2.95;;;;;;;23.98;40.24;102509.53;5053036;28;20036;-73
2022/08/07 09:10:19;;;;;;;4.68;2.83;;;;;;;23.05;44.08;102503.34;5071038;28;20059;-72
2022/08/07 09:13:02;;;;;;;5.43;3.45;;;;;;;22.43;44.76;102498.44;5071261;28;20094;-72
2022/08/07 09:15:42;;;;;;;7.45;3.50;;;;;;;21.85;47.10;102489.09;5071292;28;20032;-73
2022/08/07 09:18:26;;;;;;;6.35;3.88;;;;;;;21.58;47.84;102495.97;5071230;28;20035;-72
2022/08/07 09:21:27;;;;;;;5.15;2.60;;;;;;;21.36;46.96;102493.72;5071232;28;20463;-71
2022/08/07 09:24:04;;;;;;;7.30;3.87;;;;;;;21.26;49.76;102492.63;5071179;28;20417;-74
2022/08/07 09:26:44;;;;;;;5.75;2.90;;;;;;;21.12;47.49;102490.06;5071081;28;20036;-72
2022/08/07 09:29:53;;;;;;;5.30;2.88;;;;;;;21.15;50.73;102491.50;5071018;28;20033;-72
2022/08/07 09:32:47;;;;;;;7.85;2.50;;;;;;;21.20;51.52;102491.66;5070237;28;20488;-71
2022/08/07 09:35:57;;;;;;;5.75;3.72;;;;;;;21.19;49.80;102484.53;5056542;28;20515;-71
2022/08/07 09:38:43;;;;;;;4.68;3.10;;;;;;;21.16;48.68;102487.72;5070673;28;20020;-72
2022/08/07 09:41:21;;;;;;;5.60;2.70;;;;;;;21.06;48.07;102487.41;5070932;28;20028;-72
2022/08/07 09:44:09;;;;;;;5.35;2.70;;;;;;;20.99;48.94;102482.91;5070769;28;20102;-72
2022/08/07 09:47:00;;;;;;;6.75;3.17;;;;;;;21.06;48.85;102480.09;5055987;28;20059;-72
2022/08/07 09:49:54;;;;;;;6.28;3.30;;;;;;;21.27;50.89;102473.38;5070822;28;20064;-72
2022/08/07 09:52:33;;;;;;;4.78;2.50;;;;;;;21.36;51.64;102477.44;5070642;28;20058;-72
2022/08/07 09:55:19;;;;;;;5.53;3.65;;;;;;;21.44;49.93;102463.56;5070401;28;20103;-72
2022/08/07 09:57:53;;;;;;;6.93;3.45;;;;;;;21.53;49.67;102466.78;5069001;28;20395;-72
2022/08/07 10:00:20;;;;;;;4.82;2.90;;;;;;;21.51;49.51;102460.78;5070300;28;20079;-71
2022/08/07 10:02:55;;;;;;;7.78;3.50;;;;;;;21.58;49.72;102457.94;5070360;28;20029;-72
2022/08/07 10:06:08;;;;;;;5.10;3.20;;;;;;;21.67;49.90;102457.41;5070249;28;20024;-72
2022/08/07 10:08:54;;;;;;;5.85;2.97;;;;;;;21.70;48.43;102453.41;5070295;28;20024;-72
2022/08/07 10:11:31;;;;;;;5.32;2.63;;;;;;;21.45;49.62;102448.94;5069908;28;20535;-72
2022/08/07 10:14:18;;;;;;;4.25;2.85;;;;;;;21.16;48.17;102445.13;5066114;28;20403;-75
2022/08/07 10:17:01;;;;;;;4.82;3.25;;;;;;;21.21;49.58;102436.31;5065160;28;20073;-73
2022/08/07 10:20:00;;;;;;;7.45;3.28;;;;;;;21.39;51.01;102440.91;5065124;28;20357;-74
2022/08/07 10:22:31;;;;;;;4.88;3.00;;;;;;;21.42;50.11;102443.16;5065683;28;20040;-75
2022/08/07 10:25:06;;;;;;;5.45;3.22;;;;;;;21.58;49.16;102439.78;5065123;28;20067;-75
2022/08/07 10:27:47;;;;;;;6.90;2.95;;;;;;;21.69;49.42;102434.59;5065730;28;20033;-74
2022/08/07 10:30:32;;;;;;;4.50;2.70;;;;;;;21.78;49.91;102433.22;5065704;28;20020;-77
2022/08/07 10:33:15;;;;;;;5.95;3.15;;;;;;;21.79;47.19;102435.69;5065101;28;21540;-76
2022/08/07 10:36:02;;;;;;;5.10;3.60;;;;;;;21.81;48.51;102433.56;5065436;28;20032;-73
2022/08/07 10:39:04;;;;;;;6.25;4.07;;;;;;;21.61;48.22;102430.34;5065544;28;20020;-73
2022/08/07 10:41:39;;;;;;;4.43;2.85;;;;;;;21.72;46.57;102426.00;5026553;28;20135;-73
2022/08/07 10:44:33;;;;;;;5.65;3.47;;;;;;;22.01;47.14;102435.16;5064712;28;21383;-72
2022/08/07 10:47:17;;;;;;;4.95;3.25;;;;;;;22.16;48.18;102418.38;5064957;28;20040;-72
2022/08/07 10:50:03;;;;;;;6.78;3.70;;;;;;;22.37;47.46;102425.13;5065109;28;20020;-73
2022/08/07 10:52:38;;;;;;;4.15;2.88;;;;;;;22.53;46.33;102421.69;5065470;28;20114;-73
2022/08/07 10:55:35;;;;;;;3.72;2.95;;;;;;;22.57;47.34;102413.91;5064697;28;20435;-72
2022/08/07 10:58:34;;;;;;;7.53;3.00;;;;;;;22.53;45.70;102417.09;5058695;28;20041;-70
2022/08/07 11:01:23;;;;;;;5.07;3.08;;;;;;;22.63;44.59;102415.66;5060453;28;20053;-70
2022/08/07 11:04:13;;;;;;;5.45;3.00;;;;;;;22.81;45.65;102411.94;5068105;28;20051;-73
2022/08/07 11:07:00;;;;;;;6.20;2.90;;;;;;;22.87;45.92;102403.66;5069384;28;20038;-73
2022/08/07 11:09:30;;;;;;;5.93;2.83;;;;;;;22.92;47.21;102398.31;5068896;28;20115;-73
2022/08/07 11:12:01;;;;;;;5.55;2.80;;;;;;;23.01;43.99;102395.25;5068766;28;20060;-73
2022/08/07 11:14:34;;;;;;;;;;;;;;;23.12;47.04;102392.47;5069392;28;20103;-74
2022/08/07 11:17:42;;;;;;;4.20;3.00;;;;;;;23.10;45.51;102394.59;5069194;28;19916;-73
2022/08/07 11:20:19;;;;;;;5.70;3.08;;;;;;;23.08;43.64;102391.31;4990574;28;20071;-73
2022/08/07 11:22:52;;;;;;;5.03;2.63;;;;;;;23.20;43.65;102391.25;5064115;28;20040;-73
2022/08/07 11:25:24;;;;;;;5.40;2.90;;;;;;;23.27;42.92;102389.22;5069223;28;20395;-73
2022/08/07 11:27:52;;;;;;;;;;;;;;;23.33;42.50;102384.69;5069574;28;20039;-68
2022/08/07 11:30:23;;;;;;;5.57;3.08;;;;;;;23.14;42.74;102384.06;5070274;28;19916;-68
2022/08/07 11:32:51;;;;;;;5.80;2.85;;;;;;;23.10;43.79;102375.53;5071813;28;20031;-68
2022/08/07 11:35:24;;;;;;;3.28;2.78;;;;;;;23.19;46.17;102376.00;5073161;28;20972;-68
2022/08/07 11:37:53;;;;;;;4.53;3.15;;;;;;;23.30;44.65;102371.56;5073068;28;20174;-68
2022/08/07 11:40:52;;;;;;;4.72;3.20;;;;;;;23.52;44.93;102372.47;5072983;28;20082;-68
2022/08/07 11:43:21;;;;;;;4.28;2.45;;;;;;;23.68;43.03;102362.66;5072953;28;20020;-68
2022/08/07 11:46:04;;;;;;;5.55;2.92;;;;;;;23.79;44.04;102358.25;5072822;28;20051;-68
2022/08/07 11:48:51;;;;;;;4.40;3.45;;;;;;;23.76;42.46;102361.44;5072646;28;20052;-68